Maersk Rosario — V2BG2 — position and weather

sailwx.info

Track history (hours):
 
Tides and Currents Weather Stations Pressure Air Temp Water Temp Dewpoint Dewpoint Depression Visibility Wind Speed Wind Dir Waves Ship Positions

Maersk Rosario

Last reported at 2016-Jul-20 04:16 UTC. Time now 2016-Jul-24 06:50 UTC.
Position N 28°07' W 015°24'.

Length 161.1 m; beam 25 m; draft 9.5 m.

Type: Cargo ship. MMSI: 304814000.

Date/timePositionNaut miles runAvg speedWind from/ knotsBaromVisibWave heightAir tempDewpointWater temp
2016-Jul-20 04:16N 28°07' W 015°24'3 3.6
2016-Jul-20 03:32N 28°09' W 015°25'0 0.0
2016-Jul-20 02:32N 28°09' W 015°25'0 0.0
2016-Jul-20 01:32N 28°09' W 015°25'0 0.0
2016-Jul-20 00:32N 28°09' W 015°25'0 0.0
2016-Jul-19 23:32N 28°09' W 015°25'0 0.0
2016-Jul-19 22:32N 28°09' W 015°25'0 0.0
2016-Jul-19 21:32N 28°09' W 015°25'0 0.0
2016-Jul-19 20:32N 28°09' W 015°25'0 0.0
2016-Jul-19 19:32N 28°09' W 015°25'0 0.0
2016-Jul-19 18:32N 28°09' W 015°25'0 0.0
2016-Jul-19 17:32N 28°09' W 015°25'0 0.0
2016-Jul-19 16:32N 28°09' W 015°25'0 0.0
2016-Jul-19 15:32N 28°09' W 015°25'0 0.0
2016-Jul-19 14:32N 28°09' W 015°25'0 0.0
2016-Jul-19 13:32N 28°09' W 015°25'0 0.0
2016-Jul-19 12:32N 28°09' W 015°25'0 0.0
2016-Jul-19 11:32N 28°09' W 015°25'2 2.2
2016-Jul-19 10:33N 28°07' W 015°24'  
2016-Jul-16 19:05N 35°58' W 005°33'815.4
2016-Jul-16 18:33N 36°03' W 005°25'7 0.3
2016-Jul-15 21:16N 36°09' W 005°26'0 0.0
2016-Jul-15 01:28N 36°09' W 005°26'9 0.5
2016-Jul-14 08:15N 36°01' W 005°24'69213.4
2016-Jul-12 04:30N 28°09' W 015°21'3 3.6
2016-Jul-12 03:32N 28°09' W 015°25'0 0.0
2016-Jul-12 02:32N 28°09' W 015°25'0 0.0
2016-Jul-12 01:32N 28°09' W 015°25'0 0.0
2016-Jul-12 00:29N 28°09' W 015°25'0 0.0
2016-Jul-11 23:32N 28°09' W 015°25'0 0.0
2016-Jul-11 22:33N 28°09' W 015°25'  
Track history (hours):
 
Tides and Currents Weather Stations Pressure Air Temp Water Temp Dewpoint Dewpoint Depression Visibility Wind Speed Wind Dir Waves Ship Positions

Maersk Rosario

Last reported at 2016-Jul-20 04:16 UTC. Time now 2016-Jul-24 06:50 UTC.
Position N 28°07' W 015°24'.

Length 161.1 m; beam 25 m; draft 9.5 m.

Type: Cargo ship. MMSI: 304814000.

Date/timePositionNaut miles runAvg speedWind from/ knotsBaromVisibWave heightAir tempDewpointWater temp
2016-Jul-20 04:16N 28°07' W 015°24'3 3.6
2016-Jul-20 03:32N 28°09' W 015°25'0 0.0
2016-Jul-20 02:32N 28°09' W 015°25'0 0.0
2016-Jul-20 01:32N 28°09' W 015°25'0 0.0
2016-Jul-20 00:32N 28°09' W 015°25'0 0.0
2016-Jul-19 23:32N 28°09' W 015°25'0 0.0
2016-Jul-19 22:32N 28°09' W 015°25'0 0.0
2016-Jul-19 21:32N 28°09' W 015°25'0 0.0
2016-Jul-19 20:32N 28°09' W 015°25'0 0.0
2016-Jul-19 19:32N 28°09' W 015°25'0 0.0
2016-Jul-19 18:32N 28°09' W 015°25'0 0.0
2016-Jul-19 17:32N 28°09' W 015°25'0 0.0
2016-Jul-19 16:32N 28°09' W 015°25'0 0.0
2016-Jul-19 15:32N 28°09' W 015°25'0 0.0
2016-Jul-19 14:32N 28°09' W 015°25'0 0.0
2016-Jul-19 13:32N 28°09' W 015°25'0 0.0
2016-Jul-19 12:32N 28°09' W 015°25'0 0.0
2016-Jul-19 11:32N 28°09' W 015°25'2 2.2
2016-Jul-19 10:33N 28°07' W 015°24'  
2016-Jul-16 19:05N 35°58' W 005°33'815.4
2016-Jul-16 18:33N 36°03' W 005°25'7 0.3
2016-Jul-15 21:16N 36°09' W 005°26'0 0.0
2016-Jul-15 01:28N 36°09' W 005°26'9 0.5
2016-Jul-14 08:15N 36°01' W 005°24'69213.4
2016-Jul-12 04:30N 28°09' W 015°21'3 3.6
2016-Jul-12 03:32N 28°09' W 015°25'0 0.0
2016-Jul-12 02:32N 28°09' W 015°25'0 0.0
2016-Jul-12 01:32N 28°09' W 015°25'0 0.0
2016-Jul-12 00:29N 28°09' W 015°25'0 0.0
2016-Jul-11 23:32N 28°09' W 015°25'0 0.0
2016-Jul-11 22:33N 28°09' W 015°25'  

Dump ship's entire track history